PWSweather.com
Personal Weather Stations
Station Observations
KOHCLEVE171
Cleveland, OH

Cleveland, OH

Lat: 41.48646164, Lon: -81.46408081

Elevation: 1059

Station Type:

High Low Average
Temperature 8.8°F-12.9°C -3.3°F-19.6°C 0.3°F-17.6°C
Dew Point -0.9°F-18.3°C -15.2°F-26.2°C -10.2°F-23.4°C
Winds 14.5 mph 23.3 kmh 0.7 mph 1.1 kmh 3.0 mph W4.8 kmh W
Wind Gusts 28.2 mph45.4 kmh 0.7 mph1.1 kmh 8.0 mph12.9 kmh
Humidity 69% 52% 61%
Pressure 30.35 in1027.8 mb 29.92 in1013.2 mb -
Precipitation 0.00 in0.0 mm - -
Hour Temp Dew Point Humidity Winds Wind Gusts Pressure Precip Precip Rate Daily Precip Total
12:04 AM 8.8°F-12.9°C -1.7°F-18.7°C 62% 1.8 mph ESE2.9 kmh ESE 6.3 mph10.1 kmh 30.01 in1016.3 mb 0.00 in0.0 mm 0.00 in0.0 mm 0.02 in0.5 mm
12:09 AM 8.8°F-12.9°C -1.7°F-18.7°C 62% 2.7 mph SW4.3 kmh SW 5.1 mph8.2 kmh 30.01 in1016.3 mb 0.00 in0.0 mm 0.00 in0.0 mm 0.02 in0.5 mm
12:14 AM 8.8°F-12.9°C -1.7°F-18.7°C 62% 5.4 mph SW8.7 kmh SW 10.5 mph16.9 kmh 30.01 in1016.3 mb 0.00 in0.0 mm 0.00 in0.0 mm 0.02 in0.5 mm
12:19 AM 8.8°F-12.9°C -1.3°F-18.5°C 63% 2.7 mph SE4.3 kmh SE 5.8 mph9.3 kmh 30.01 in1016.3 mb 0.00 in0.0 mm 0.00 in0.0 mm 0.02 in0.5 mm
12:24 AM 8.8°F-12.9°C -1.3°F-18.5°C 63% 1.8 mph SW2.9 kmh SW 3.4 mph5.5 kmh 30.01 in1016.3 mb 0.00 in0.0 mm 0.00 in0.0 mm 0.02 in0.5 mm
12:29 AM 8.6°F-13.0°C -1.5°F-18.6°C 63% 2.7 mph SSW4.3 kmh SSW 4.7 mph7.6 kmh 30.00 in1015.9 mb 0.00 in0.0 mm 0.00 in0.0 mm 0.02 in0.5 mm
12:34 AM 8.4°F-13.1°C -2.0°F-18.9°C 62% 3.6 mph SW5.8 kmh SW 6.7 mph10.8 kmh 30.01 in1016.3 mb 0.00 in0.0 mm 0.00 in0.0 mm 0.02 in0.5 mm
12:39 AM 8.4°F-13.1°C -1.7°F-18.7°C 63% 2.0 mph S3.2 kmh S 4.0 mph6.4 kmh 30.00 in1015.9 mb 0.00 in0.0 mm 0.00 in0.0 mm 0.02 in0.5 mm
12:44 AM 8.4°F-13.1°C -1.7°F-18.7°C 63% 1.6 mph W2.6 kmh W 2.7 mph4.3 kmh 30.00 in1015.9 mb 0.00 in0.0 mm 0.00 in0.0 mm 0.02 in0.5 mm
12:49 AM 8.2°F-13.2°C -1.8°F-18.8°C 63% 4.3 mph SW6.9 kmh SW 7.8 mph12.6 kmh 29.99 in1015.6 mb 0.00 in0.0 mm 0.00 in0.0 mm 0.02 in0.5 mm
12:54 AM 8.4°F-13.1°C -1.7°F-18.7°C 63% 1.6 mph W2.6 kmh W 3.6 mph5.8 kmh 29.99 in1015.6 mb 0.00 in0.0 mm 0.00 in0.0 mm 0.02 in0.5 mm
01:04 AM 8.4°F-13.1°C -1.7°F-18.7°C 63% 1.3 mph WSW2.1 kmh WSW 5.4 mph8.7 kmh 29.99 in1015.6 mb 0.00 in0.0 mm 0.00 in0.0 mm 0.00 in0.0 mm
01:09 AM 8.8°F-12.9°C -0.9°F-18.3°C 64% 2.2 mph SW3.5 kmh SW 4.7 mph7.6 kmh 29.99 in1015.6 mb 0.00 in0.0 mm 0.00 in0.0 mm 0.00 in0.0 mm
01:14 AM 8.4°F-13.1°C -1.7°F-18.7°C 63% 2.5 mph S4.0 kmh S 5.1 mph8.2 kmh 29.99 in1015.6 mb 0.00 in0.0 mm 0.00 in0.0 mm 0.00 in0.0 mm
01:19 AM 8.2°F-13.2°C -1.8°F-18.8°C 63% 2.5 mph ESE4.0 kmh ESE 3.8 mph6.1 kmh 29.99 in1015.6 mb 0.00 in0.0 mm 0.00 in0.0 mm 0.00 in0.0 mm
01:24 AM 8.2°F-13.2°C -1.8°F-18.8°C 63% 2.7 mph SSE4.3 kmh SSE 6.7 mph10.8 kmh 29.99 in1015.6 mb 0.00 in0.0 mm 0.00 in0.0 mm 0.00 in0.0 mm
01:29 AM 7.9°F-13.4°C -2.2°F-19.0°C 63% 3.8 mph SW6.1 kmh SW 5.8 mph9.3 kmh 29.99 in1015.6 mb 0.00 in0.0 mm 0.00 in0.0 mm 0.00 in0.0 mm
01:34 AM 8.1°F-13.3°C -1.7°F-18.7°C 64% 1.6 mph NW2.6 kmh NW 4.0 mph6.4 kmh 29.99 in1015.6 mb 0.00 in0.0 mm 0.00 in0.0 mm 0.00 in0.0 mm
01:39 AM 8.1°F-13.3°C -1.7°F-18.7°C 64% 1.8 mph S2.9 kmh S 2.9 mph4.7 kmh 29.98 in1015.2 mb 0.00 in0.0 mm 0.00 in0.0 mm 0.00 in0.0 mm
01:44 AM 8.2°F-13.2°C -1.1°F-18.4°C 65% 2.2 mph SSW3.5 kmh SSW 4.3 mph6.9 kmh 29.98 in1015.2 mb 0.00 in0.0 mm 0.00 in0.0 mm 0.00 in0.0 mm
01:49 AM 8.1°F-13.3°C -1.7°F-18.7°C 64% 0.9 mph WSW1.4 kmh WSW 2.2 mph3.5 kmh 29.98 in1015.2 mb 0.00 in0.0 mm 0.00 in0.0 mm 0.00 in0.0 mm
01:54 AM 8.2°F-13.2°C -1.1°F-18.4°C 65% 1.6 mph W2.6 kmh W 5.6 mph9.0 kmh 29.98 in1015.2 mb 0.00 in0.0 mm 0.00 in0.0 mm 0.00 in0.0 mm
01:59 AM 8.4°F-13.1°C -0.9°F-18.3°C 65% 1.3 mph NW2.1 kmh NW 2.2 mph3.5 kmh 29.98 in1015.2 mb 0.00 in0.0 mm 0.00 in0.0 mm 0.00 in0.0 mm
02:04 AM 8.1°F-13.3°C -1.3°F-18.5°C 65% 2.5 mph WSW4.0 kmh WSW 6.3 mph10.1 kmh 29.98 in1015.2 mb 0.00 in0.0 mm 0.00 in0.0 mm 0.00 in0.0 mm
02:09 AM 7.7°F-13.5°C -1.7°F-18.7°C 65% 1.3 mph NW2.1 kmh NW 2.7 mph4.3 kmh 29.98 in1015.2 mb 0.00 in0.0 mm 0.00 in0.0 mm 0.00 in0.0 mm
02:14 AM 7.7°F-13.5°C -1.7°F-18.7°C 65% 0.7 mph NW1.1 kmh NW 2.5 mph4.0 kmh 29.97 in1014.9 mb 0.00 in0.0 mm 0.00 in0.0 mm 0.00 in0.0 mm
02:19 AM 7.7°F-13.5°C -1.7°F-18.7°C 65% 1.8 mph S2.9 kmh S 3.4 mph5.5 kmh 29.98 in1015.2 mb 0.00 in0.0 mm 0.00 in0.0 mm 0.00 in0.0 mm
02:24 AM 7.5°F-13.6°C -1.1°F-18.4°C 67% 0.9 mph WSW1.4 kmh WSW 2.0 mph3.2 kmh 29.98 in1015.2 mb 0.00 in0.0 mm 0.00 in0.0 mm 0.00 in0.0 mm
02:29 AM 7.2°F-13.8°C -1.5°F-18.6°C 67% 1.6 mph NW2.6 kmh NW 2.7 mph4.3 kmh 29.98 in1015.2 mb 0.00 in0.0 mm 0.00 in0.0 mm 0.00 in0.0 mm
02:34 AM 7.0°F-13.9°C -1.7°F-18.7°C 67% 1.3 mph NW2.1 kmh NW 2.9 mph4.7 kmh 29.98 in1015.2 mb 0.00 in0.0 mm 0.00 in0.0 mm 0.00 in0.0 mm
02:39 AM 6.8°F-14.0°C -1.5°F-18.6°C 68% 1.3 mph SW2.1 kmh SW 2.7 mph4.3 kmh 29.98 in1015.2 mb 0.00 in0.0 mm 0.00 in0.0 mm 0.00 in0.0 mm
02:44 AM 7.0°F-13.9°C -1.3°F-18.5°C 68% 1.8 mph WSW2.9 kmh WSW 3.8 mph6.1 kmh 29.97 in1014.9 mb 0.00 in0.0 mm 0.00 in0.0 mm 0.00 in0.0 mm
02:49 AM 7.0°F-13.9°C -1.3°F-18.5°C 68% 2.7 mph SW4.3 kmh SW 7.8 mph12.6 kmh 29.97 in1014.9 mb 0.00 in0.0 mm 0.00 in0.0 mm 0.00 in0.0 mm
02:54 AM 7.0°F-13.9°C -1.1°F-18.4°C 69% 1.3 mph WSW2.1 kmh WSW 3.6 mph5.8 kmh 29.97 in1014.9 mb 0.00 in0.0 mm 0.00 in0.0 mm 0.00 in0.0 mm
02:59 AM 7.0°F-13.9°C -1.1°F-18.4°C 69% 2.5 mph SSW4.0 kmh SSW 5.8 mph9.3 kmh 29.96 in1014.6 mb 0.00 in0.0 mm 0.00 in0.0 mm 0.00 in0.0 mm
03:04 AM 7.2°F-13.8°C -0.9°F-18.3°C 69% 0.9 mph W1.4 kmh W 2.7 mph4.3 kmh 29.96 in1014.6 mb 0.00 in0.0 mm 0.00 in0.0 mm 0.00 in0.0 mm
03:09 AM 7.2°F-13.8°C -0.9°F-18.3°C 69% 3.1 mph SSW5.0 kmh SSW 7.2 mph11.6 kmh 29.96 in1014.6 mb 0.00 in0.0 mm 0.00 in0.0 mm 0.00 in0.0 mm
03:14 AM 7.2°F-13.8°C -0.9°F-18.3°C 69% 1.1 mph WNW1.8 kmh WNW 2.5 mph4.0 kmh 29.96 in1014.6 mb 0.00 in0.0 mm 0.00 in0.0 mm 0.00 in0.0 mm
03:19 AM 7.2°F-13.8°C -0.9°F-18.3°C 69% 4.0 mph SW6.4 kmh SW 8.5 mph13.7 kmh 29.95 in1014.2 mb 0.00 in0.0 mm 0.00 in0.0 mm 0.00 in0.0 mm
03:24 AM 7.0°F-13.9°C -1.1°F-18.4°C 69% 1.8 mph W2.9 kmh W 5.1 mph8.2 kmh 29.95 in1014.2 mb 0.00 in0.0 mm 0.00 in0.0 mm 0.00 in0.0 mm
03:29 AM 6.6°F-14.1°C -1.7°F-18.7°C 68% 1.6 mph NW2.6 kmh NW 2.9 mph4.7 kmh 29.95 in1014.2 mb 0.00 in0.0 mm 0.00 in0.0 mm 0.00 in0.0 mm
03:34 AM 6.6°F-14.1°C -1.7°F-18.7°C 68% 4.0 mph SW6.4 kmh SW 9.4 mph15.1 kmh 29.95 in1014.2 mb 0.00 in0.0 mm 0.00 in0.0 mm 0.00 in0.0 mm
03:39 AM 6.6°F-14.1°C -1.7°F-18.7°C 68% 2.2 mph SW3.5 kmh SW 6.3 mph10.1 kmh 29.95 in1014.2 mb 0.00 in0.0 mm 0.00 in0.0 mm 0.00 in0.0 mm
03:44 AM 6.6°F-14.1°C -1.7°F-18.7°C 68% 1.3 mph W2.1 kmh W 4.7 mph7.6 kmh 29.95 in1014.2 mb 0.00 in0.0 mm 0.00 in0.0 mm 0.00 in0.0 mm
03:49 AM 6.4°F-14.2°C -1.8°F-18.8°C 68% 3.1 mph WSW5.0 kmh WSW 11.2 mph18.0 kmh 29.95 in1014.2 mb 0.00 in0.0 mm 0.00 in0.0 mm 0.00 in0.0 mm
03:54 AM 6.3°F-14.3°C -2.0°F-18.9°C 68% 1.8 mph WSW2.9 kmh WSW 5.1 mph8.2 kmh 29.95 in1014.2 mb 0.00 in0.0 mm 0.00 in0.0 mm 0.00 in0.0 mm
03:59 AM 6.3°F-14.3°C -2.0°F-18.9°C 68% 1.1 mph WSW1.8 kmh WSW 2.0 mph3.2 kmh 29.94 in1013.9 mb 0.00 in0.0 mm 0.00 in0.0 mm 0.00 in0.0 mm
04:04 AM 6.3°F-14.3°C -2.4°F-19.1°C 67% 1.6 mph SW2.6 kmh SW 4.7 mph7.6 kmh 29.94 in1013.9 mb 0.00 in0.0 mm 0.00 in0.0 mm 0.00 in0.0 mm
04:09 AM 6.3°F-14.3°C -2.9°F-19.4°C 65% 2.9 mph SW4.7 kmh SW 6.9 mph11.1 kmh 29.94 in1013.9 mb 0.00 in0.0 mm 0.00 in0.0 mm 0.00 in0.0 mm
04:14 AM 6.1°F-14.4°C -3.1°F-19.5°C 65% 2.5 mph NW4.0 kmh NW 12.1 mph19.5 kmh 29.93 in1013.5 mb 0.00 in0.0 mm 0.00 in0.0 mm 0.00 in0.0 mm
04:19 AM 5.9°F-14.5°C -3.3°F-19.6°C 65% 1.3 mph WSW2.1 kmh WSW 2.5 mph4.0 kmh 29.94 in1013.9 mb 0.00 in0.0 mm 0.00 in0.0 mm 0.00 in0.0 mm
04:24 AM 5.5°F-14.7°C -3.6°F-19.8°C 65% 2.0 mph W3.2 kmh W 3.1 mph5.0 kmh 29.93 in1013.5 mb 0.00 in0.0 mm 0.00 in0.0 mm 0.00 in0.0 mm
04:29 AM 5.5°F-14.7°C -4.0°F-20.0°C 64% 2.5 mph WSW4.0 kmh WSW 13.9 mph22.4 kmh 29.94 in1013.9 mb 0.00 in0.0 mm 0.00 in0.0 mm 0.00 in0.0 mm
04:34 AM 5.4°F-14.8°C -4.2°F-20.1°C 64% 2.2 mph N3.5 kmh N 4.5 mph7.2 kmh 29.93 in1013.5 mb 0.00 in0.0 mm 0.00 in0.0 mm 0.00 in0.0 mm
04:39 AM 5.4°F-14.8°C -4.2°F-20.1°C 64% 1.1 mph WSW1.8 kmh WSW 3.6 mph5.8 kmh 29.93 in1013.5 mb 0.00 in0.0 mm 0.00 in0.0 mm 0.00 in0.0 mm
04:49 AM 5.2°F-14.9°C -4.7°F-20.4°C 63% 1.6 mph SW2.6 kmh SW 4.0 mph6.4 kmh 29.92 in1013.2 mb 0.00 in0.0 mm 0.00 in0.0 mm 0.00 in0.0 mm
04:54 AM 5.0°F-15.0°C -4.9°F-20.5°C 63% 1.8 mph WSW2.9 kmh WSW 4.0 mph6.4 kmh 29.92 in1013.2 mb 0.00 in0.0 mm 0.00 in0.0 mm 0.00 in0.0 mm
04:59 AM 4.8°F-15.1°C -5.1°F-20.6°C 63% 6.3 mph SW10.1 kmh SW 24.8 mph39.9 kmh 29.92 in1013.2 mb 0.00 in0.0 mm 0.00 in0.0 mm 0.00 in0.0 mm
05:04 AM 4.6°F-15.2°C -5.3°F-20.7°C 63% 1.1 mph WSW1.8 kmh WSW 2.2 mph3.5 kmh 29.92 in1013.2 mb 0.00 in0.0 mm 0.00 in0.0 mm 0.00 in0.0 mm
05:09 AM 4.6°F-15.2°C -5.3°F-20.7°C 63% 2.2 mph NW3.5 kmh NW 6.3 mph10.1 kmh 29.92 in1013.2 mb 0.00 in0.0 mm 0.00 in0.0 mm 0.00 in0.0 mm
05:14 AM 4.5°F-15.3°C -5.6°F-20.9°C 62% 2.5 mph W4.0 kmh W 10.3 mph16.6 kmh 29.92 in1013.2 mb 0.00 in0.0 mm 0.00 in0.0 mm 0.00 in0.0 mm
05:19 AM 4.3°F-15.4°C -6.5°F-21.4°C 60% 2.2 mph WSW3.5 kmh WSW 4.3 mph6.9 kmh 29.92 in1013.2 mb 0.00 in0.0 mm 0.00 in0.0 mm 0.00 in0.0 mm
05:24 AM 4.1°F-15.5°C -7.1°F-21.7°C 59% 2.0 mph W3.2 kmh W 4.3 mph6.9 kmh 29.92 in1013.2 mb 0.00 in0.0 mm 0.00 in0.0 mm 0.00 in0.0 mm
05:29 AM 3.7°F-15.7°C -7.1°F-21.7°C 60% 2.7 mph W4.3 kmh W 6.9 mph11.1 kmh 29.92 in1013.2 mb 0.00 in0.0 mm 0.00 in0.0 mm 0.00 in0.0 mm
05:34 AM 3.7°F-15.7°C -7.1°F-21.7°C 60% 1.1 mph SW1.8 kmh SW 2.7 mph4.3 kmh 29.92 in1013.2 mb 0.00 in0.0 mm 0.00 in0.0 mm 0.00 in0.0 mm
05:39 AM 3.6°F-15.8°C -7.2°F-21.8°C 60% 1.6 mph SW2.6 kmh SW 4.7 mph7.6 kmh 29.92 in1013.2 mb 0.00 in0.0 mm 0.00 in0.0 mm 0.00 in0.0 mm
05:44 AM 3.4°F-15.9°C -7.4°F-21.9°C 60% 1.8 mph WSW2.9 kmh WSW 4.0 mph6.4 kmh 29.92 in1013.2 mb 0.00 in0.0 mm 0.00 in0.0 mm 0.00 in0.0 mm
05:49 AM 3.4°F-15.9°C -7.4°F-21.9°C 60% 2.0 mph WSW3.2 kmh WSW 4.7 mph7.6 kmh 29.92 in1013.2 mb 0.00 in0.0 mm 0.00 in0.0 mm 0.00 in0.0 mm
05:54 AM 3.2°F-16.0°C -6.9°F-21.6°C 62% 2.2 mph SW3.5 kmh SW 6.0 mph9.7 kmh 29.92 in1013.2 mb 0.00 in0.0 mm 0.00 in0.0 mm 0.00 in0.0 mm
05:59 AM 3.4°F-15.9°C -6.7°F-21.5°C 62% 1.3 mph WSW2.1 kmh WSW 4.3 mph6.9 kmh 29.92 in1013.2 mb 0.00 in0.0 mm 0.00 in0.0 mm 0.00 in0.0 mm
06:04 AM 3.0°F-16.1°C -7.8°F-22.1°C 60% 2.2 mph SW3.5 kmh SW 6.3 mph10.1 kmh 29.92 in1013.2 mb 0.00 in0.0 mm 0.00 in0.0 mm 0.00 in0.0 mm
06:09 AM 2.8°F-16.2°C -8.3°F-22.4°C 59% 1.3 mph SW2.1 kmh SW 3.4 mph5.5 kmh 29.92 in1013.2 mb 0.00 in0.0 mm 0.00 in0.0 mm 0.00 in0.0 mm
06:14 AM 2.8°F-16.2°C -8.0°F-22.2°C 60% 2.0 mph SW3.2 kmh SW 4.7 mph7.6 kmh 29.92 in1013.2 mb 0.00 in0.0 mm 0.00 in0.0 mm 0.00 in0.0 mm
06:19 AM 2.7°F-16.3°C -8.1°F-22.3°C 60% 1.6 mph SW2.6 kmh SW 3.6 mph5.8 kmh 29.92 in1013.2 mb 0.00 in0.0 mm 0.00 in0.0 mm 0.00 in0.0 mm
06:24 AM 2.8°F-16.2°C -8.0°F-22.2°C 60% 1.6 mph SW2.6 kmh SW 6.3 mph10.1 kmh 29.92 in1013.2 mb 0.00 in0.0 mm 0.00 in0.0 mm 0.00 in0.0 mm
06:29 AM 2.5°F-16.4°C -8.3°F-22.4°C 60% 1.3 mph SW2.1 kmh SW 1.8 mph2.9 kmh 29.92 in1013.2 mb 0.00 in0.0 mm 0.00 in0.0 mm 0.00 in0.0 mm
06:34 AM 2.3°F-16.5°C -8.5°F-22.5°C 60% 1.6 mph SW2.6 kmh SW 3.4 mph5.5 kmh 29.92 in1013.2 mb 0.00 in0.0 mm 0.00 in0.0 mm 0.00 in0.0 mm
06:39 AM 1.9°F-16.7°C -9.0°F-22.8°C 59% 1.6 mph WSW2.6 kmh WSW 2.7 mph4.3 kmh 29.92 in1013.2 mb 0.00 in0.0 mm 0.00 in0.0 mm 0.00 in0.0 mm
06:44 AM 1.9°F-16.7°C -9.0°F-22.8°C 59% 1.6 mph WSW2.6 kmh WSW 4.3 mph6.9 kmh 29.92 in1013.2 mb 0.00 in0.0 mm 0.00 in0.0 mm 0.00 in0.0 mm
06:49 AM 1.8°F-16.8°C -9.2°F-22.9°C 59% 1.8 mph SW2.9 kmh SW 4.5 mph7.2 kmh 29.92 in1013.2 mb 0.00 in0.0 mm 0.00 in0.0 mm 0.00 in0.0 mm
06:54 AM 1.8°F-16.8°C -8.9°F-22.7°C 60% 1.8 mph SW2.9 kmh SW 4.7 mph7.6 kmh 29.93 in1013.5 mb 0.00 in0.0 mm 0.00 in0.0 mm 0.00 in0.0 mm
06:59 AM 1.4°F-17.0°C -9.9°F-23.3°C 58% 2.2 mph WSW3.5 kmh WSW 6.0 mph9.7 kmh 29.92 in1013.2 mb 0.00 in0.0 mm 0.00 in0.0 mm 0.00 in0.0 mm
07:04 AM 1.4°F-17.0°C -9.9°F-23.3°C 58% 1.6 mph SW2.6 kmh SW 2.7 mph4.3 kmh 29.93 in1013.5 mb 0.00 in0.0 mm 0.00 in0.0 mm 0.00 in0.0 mm
07:09 AM 1.2°F-17.1°C -9.4°F-23.0°C 60% 2.2 mph SW3.5 kmh SW 4.5 mph7.2 kmh 29.93 in1013.5 mb 0.00 in0.0 mm 0.00 in0.0 mm 0.00 in0.0 mm
07:14 AM 1.2°F-17.1°C -9.4°F-23.0°C 60% 2.0 mph SW3.2 kmh SW 4.5 mph7.2 kmh 29.93 in1013.5 mb 0.00 in0.0 mm 0.00 in0.0 mm 0.00 in0.0 mm
07:19 AM 0.9°F-17.3°C -10.1°F-23.4°C 59% 2.7 mph SW4.3 kmh SW 6.7 mph10.8 kmh 29.93 in1013.5 mb 0.00 in0.0 mm 0.00 in0.0 mm 0.00 in0.0 mm
07:24 AM 0.7°F-17.4°C -10.3°F-23.5°C 59% 2.2 mph WSW3.5 kmh WSW 5.4 mph8.7 kmh 29.94 in1013.9 mb 0.00 in0.0 mm 0.00 in0.0 mm 0.00 in0.0 mm
07:29 AM 0.7°F-17.4°C -9.9°F-23.3°C 60% 1.6 mph W2.6 kmh W 3.6 mph5.8 kmh 29.94 in1013.9 mb 0.00 in0.0 mm 0.00 in0.0 mm 0.00 in0.0 mm
07:39 AM 0.3°F-17.6°C -10.7°F-23.7°C 59% 1.3 mph WNW2.1 kmh WNW 3.4 mph5.5 kmh 29.95 in1014.2 mb 0.00 in0.0 mm 0.00 in0.0 mm 0.00 in0.0 mm
07:44 AM 0.0°F-17.8°C -10.7°F-23.7°C 60% 0.9 mph NW1.4 kmh NW 3.6 mph5.8 kmh 29.95 in1014.2 mb 0.00 in0.0 mm 0.00 in0.0 mm 0.00 in0.0 mm
07:49 AM 0.1°F-17.7°C -10.5°F-23.6°C 60% 1.8 mph NW2.9 kmh NW 4.7 mph7.6 kmh 29.95 in1014.2 mb 0.00 in0.0 mm 0.00 in0.0 mm 0.00 in0.0 mm
07:54 AM 0.1°F-17.7°C -10.5°F-23.6°C 60% 1.8 mph WSW2.9 kmh WSW 5.4 mph8.7 kmh 29.95 in1014.2 mb 0.00 in0.0 mm 0.00 in0.0 mm 0.00 in0.0 mm
07:59 AM 0.0°F-17.8°C -10.7°F-23.7°C 60% 4.3 mph ENE6.9 kmh ENE 11.2 mph18.0 kmh 29.95 in1014.2 mb 0.00 in0.0 mm 0.00 in0.0 mm 0.00 in0.0 mm
08:04 AM 0.0°F-17.8°C -10.3°F-23.5°C 61% 3.4 mph NW5.5 kmh NW 5.6 mph9.0 kmh 29.95 in1014.2 mb 0.00 in0.0 mm 0.00 in0.0 mm 0.00 in0.0 mm
08:09 AM -0.4°F-18.0°C -10.7°F-23.7°C 61% 2.2 mph NW3.5 kmh NW 6.3 mph10.1 kmh 29.96 in1014.6 mb 0.00 in0.0 mm 0.00 in0.0 mm 0.00 in0.0 mm
08:14 AM -0.4°F-18.0°C -10.7°F-23.7°C 61% 2.7 mph N4.3 kmh N 7.4 mph11.9 kmh 29.96 in1014.6 mb 0.00 in0.0 mm 0.00 in0.0 mm 0.00 in0.0 mm
08:19 AM -0.4°F-18.0°C -10.7°F-23.7°C 61% 3.4 mph N5.5 kmh N 8.5 mph13.7 kmh 29.96 in1014.6 mb 0.00 in0.0 mm 0.00 in0.0 mm 0.00 in0.0 mm
08:24 AM -0.4°F-18.0°C -10.3°F-23.5°C 62% 4.5 mph ENE7.2 kmh ENE 8.3 mph13.4 kmh 29.96 in1014.6 mb 0.00 in0.0 mm 0.00 in0.0 mm 0.00 in0.0 mm
08:29 AM -0.4°F-18.0°C -10.3°F-23.5°C 62% 4.0 mph N6.4 kmh N 8.9 mph14.3 kmh 29.96 in1014.6 mb 0.00 in0.0 mm 0.00 in0.0 mm 0.00 in0.0 mm
08:34 AM -0.6°F-18.1°C -10.1°F-23.4°C 63% 3.6 mph N5.8 kmh N 8.5 mph13.7 kmh 29.96 in1014.6 mb 0.00 in0.0 mm 0.00 in0.0 mm 0.00 in0.0 mm
08:39 AM -0.2°F-17.9°C -9.8°F-23.2°C 63% 5.1 mph E8.2 kmh E 7.8 mph12.6 kmh 29.96 in1014.6 mb 0.00 in0.0 mm 0.00 in0.0 mm 0.00 in0.0 mm
08:44 AM -0.2°F-17.9°C -9.8°F-23.2°C 63% 5.1 mph ENE8.2 kmh ENE 8.7 mph14.0 kmh 29.97 in1014.9 mb 0.00 in0.0 mm 0.00 in0.0 mm 0.00 in0.0 mm
08:49 AM 0.0°F-17.8°C -9.4°F-23.0°C 64% 3.4 mph N5.5 kmh N 8.3 mph13.4 kmh 29.98 in1015.2 mb 0.00 in0.0 mm 0.00 in0.0 mm 0.00 in0.0 mm
08:54 AM 0.1°F-17.7°C -9.4°F-23.0°C 63% 4.3 mph E6.9 kmh E 10.5 mph16.9 kmh 29.98 in1015.2 mb 0.00 in0.0 mm 0.00 in0.0 mm 0.00 in0.0 mm
08:59 AM 0.3°F-17.6°C -9.0°F-22.8°C 64% 4.9 mph NE7.9 kmh NE 10.1 mph16.3 kmh 29.98 in1015.2 mb 0.00 in0.0 mm 0.00 in0.0 mm 0.00 in0.0 mm
09:04 AM 0.3°F-17.6°C -8.7°F-22.6°C 65% 2.7 mph NNW4.3 kmh NNW 6.5 mph10.5 kmh 29.98 in1015.2 mb 0.00 in0.0 mm 0.00 in0.0 mm 0.00 in0.0 mm
09:09 AM 0.1°F-17.7°C -8.5°F-22.5°C 66% 4.0 mph NW6.4 kmh NW 5.4 mph8.7 kmh 29.99 in1015.6 mb 0.00 in0.0 mm 0.00 in0.0 mm 0.00 in0.0 mm
09:14 AM -0.2°F-17.9°C -9.6°F-23.1°C 64% 3.4 mph N5.5 kmh N 9.6 mph15.4 kmh 29.99 in1015.6 mb 0.00 in0.0 mm 0.00 in0.0 mm 0.00 in0.0 mm
09:19 AM -0.4°F-18.0°C -9.9°F-23.3°C 63% 2.9 mph N4.7 kmh N 6.7 mph10.8 kmh 30.00 in1015.9 mb 0.00 in0.0 mm 0.00 in0.0 mm 0.00 in0.0 mm
09:24 AM -0.8°F-18.2°C -10.7°F-23.7°C 62% 2.9 mph NW4.7 kmh NW 8.5 mph13.7 kmh 30.01 in1016.3 mb 0.00 in0.0 mm 0.00 in0.0 mm 0.00 in0.0 mm
09:29 AM -0.8°F-18.2°C -10.3°F-23.5°C 63% 2.5 mph NW4.0 kmh NW 6.7 mph10.8 kmh 30.01 in1016.3 mb 0.00 in0.0 mm 0.00 in0.0 mm 0.00 in0.0 mm
09:34 AM -0.9°F-18.3°C -10.5°F-23.6°C 63% 3.1 mph NW5.0 kmh NW 9.4 mph15.1 kmh 30.02 in1016.6 mb 0.00 in0.0 mm 0.00 in0.0 mm 0.00 in0.0 mm
09:39 AM -0.9°F-18.3°C -10.8°F-23.8°C 62% 2.9 mph NE4.7 kmh NE 8.9 mph14.3 kmh 30.03 in1016.9 mb 0.00 in0.0 mm 0.00 in0.0 mm 0.00 in0.0 mm
09:44 AM -0.9°F-18.3°C -10.5°F-23.6°C 63% 3.1 mph NNW5.0 kmh NNW 9.2 mph14.8 kmh 30.04 in1017.3 mb 0.00 in0.0 mm 0.00 in0.0 mm 0.00 in0.0 mm
09:49 AM -1.1°F-18.4°C -11.0°F-23.9°C 62% 2.2 mph NW3.5 kmh NW 6.9 mph11.1 kmh 30.04 in1017.3 mb 0.00 in0.0 mm 0.00 in0.0 mm 0.00 in0.0 mm
09:54 AM -1.5°F-18.6°C -12.1°F-24.5°C 60% 2.0 mph NW3.2 kmh NW 8.5 mph13.7 kmh 30.04 in1017.3 mb 0.00 in0.0 mm 0.00 in0.0 mm 0.00 in0.0 mm
09:59 AM -1.8°F-18.8°C -13.4°F-25.2°C 57% 1.6 mph NW2.6 kmh NW 7.6 mph12.2 kmh 30.04 in1017.3 mb 0.00 in0.0 mm 0.00 in0.0 mm 0.00 in0.0 mm
10:04 AM -2.2°F-19.0°C -14.1°F-25.6°C 56% 1.8 mph NW2.9 kmh NW 5.4 mph8.7 kmh 30.05 in1017.6 mb 0.00 in0.0 mm 0.00 in0.0 mm 0.00 in0.0 mm
10:09 AM -2.2°F-19.0°C -14.4°F-25.8°C 55% 1.3 mph NW2.1 kmh NW 5.1 mph8.2 kmh 30.05 in1017.6 mb 0.00 in0.0 mm 0.00 in0.0 mm 0.00 in0.0 mm
10:14 AM -1.5°F-18.6°C -13.4°F-25.2°C 56% 4.3 mph N6.9 kmh N 10.7 mph17.2 kmh 30.05 in1017.6 mb 0.00 in0.0 mm 0.00 in0.0 mm 0.00 in0.0 mm
10:19 AM -1.5°F-18.6°C -13.4°F-25.2°C 56% 1.8 mph NW2.9 kmh NW 7.2 mph11.6 kmh 30.05 in1017.6 mb 0.00 in0.0 mm 0.00 in0.0 mm 0.00 in0.0 mm
10:24 AM -1.7°F-18.7°C -13.2°F-25.1°C 57% 1.8 mph NW2.9 kmh NW 8.9 mph14.3 kmh 30.05 in1017.6 mb 0.00 in0.0 mm 0.00 in0.0 mm 0.00 in0.0 mm
10:29 AM -1.7°F-18.7°C -12.5°F-24.7°C 59% 2.7 mph NW4.3 kmh NW 11.6 mph18.7 kmh 30.06 in1017.9 mb 0.00 in0.0 mm 0.00 in0.0 mm 0.00 in0.0 mm
10:34 AM -1.7°F-18.7°C -13.2°F-25.1°C 57% 4.9 mph NE7.9 kmh NE 9.4 mph15.1 kmh 30.06 in1017.9 mb 0.00 in0.0 mm 0.00 in0.0 mm 0.00 in0.0 mm
10:39 AM -1.5°F-18.6°C -13.0°F-25.0°C 57% 3.6 mph N5.8 kmh N 14.3 mph23.0 kmh 30.06 in1017.9 mb 0.00 in0.0 mm 0.00 in0.0 mm 0.00 in0.0 mm
10:44 AM -1.5°F-18.6°C -13.4°F-25.2°C 56% 3.1 mph NNW5.0 kmh NNW 9.6 mph15.4 kmh 30.06 in1017.9 mb 0.00 in0.0 mm 0.00 in0.0 mm 0.00 in0.0 mm
10:49 AM -1.7°F-18.7°C -13.9°F-25.5°C 55% 2.9 mph NW4.7 kmh NW 6.9 mph11.1 kmh 30.07 in1018.3 mb 0.00 in0.0 mm 0.00 in0.0 mm 0.00 in0.0 mm
10:54 AM -1.8°F-18.8°C -14.1°F-25.6°C 55% 4.3 mph NNW6.9 kmh NNW 17.7 mph28.5 kmh 30.07 in1018.3 mb 0.00 in0.0 mm 0.00 in0.0 mm 0.00 in0.0 mm
10:59 AM -1.8°F-18.8°C -14.4°F-25.8°C 54% 1.3 mph NW2.1 kmh NW 5.1 mph8.2 kmh 30.07 in1018.3 mb 0.00 in0.0 mm 0.00 in0.0 mm 0.00 in0.0 mm
11:04 AM -1.5°F-18.6°C -14.1°F-25.6°C 54% 2.9 mph NW4.7 kmh NW 8.1 mph13.0 kmh 30.08 in1018.6 mb 0.00 in0.0 mm 0.00 in0.0 mm 0.00 in0.0 mm
11:09 AM -1.5°F-18.6°C -14.1°F-25.6°C 54% 4.9 mph NW7.9 kmh NW 13.0 mph20.9 kmh 30.08 in1018.6 mb 0.00 in0.0 mm 0.00 in0.0 mm 0.00 in0.0 mm
11:14 AM -1.3°F-18.5°C -13.5°F-25.3°C 55% 3.1 mph NW5.0 kmh NW 6.7 mph10.8 kmh 30.09 in1019.0 mb 0.00 in0.0 mm 0.00 in0.0 mm 0.00 in0.0 mm
11:19 AM -1.8°F-18.8°C -14.4°F-25.8°C 54% 2.9 mph NW4.7 kmh NW 8.7 mph14.0 kmh 30.10 in1019.3 mb 0.00 in0.0 mm 0.00 in0.0 mm 0.00 in0.0 mm
11:24 AM -1.7°F-18.7°C -13.9°F-25.5°C 55% 2.7 mph NW4.3 kmh NW 7.2 mph11.6 kmh 30.10 in1019.3 mb 0.00 in0.0 mm 0.00 in0.0 mm 0.00 in0.0 mm
11:29 AM -1.5°F-18.6°C -13.7°F-25.4°C 55% 3.6 mph NW5.8 kmh NW 13.9 mph22.4 kmh 30.10 in1019.3 mb 0.00 in0.0 mm 0.00 in0.0 mm 0.00 in0.0 mm
11:34 AM -1.3°F-18.5°C -13.5°F-25.3°C 55% 2.7 mph NW4.3 kmh NW 6.5 mph10.5 kmh 30.10 in1019.3 mb 0.00 in0.0 mm 0.00 in0.0 mm 0.00 in0.0 mm
11:39 AM -1.5°F-18.6°C -14.1°F-25.6°C 54% 4.5 mph NW7.2 kmh NW 13.9 mph22.4 kmh 30.10 in1019.3 mb 0.00 in0.0 mm 0.00 in0.0 mm 0.00 in0.0 mm
11:44 AM -1.8°F-18.8°C -15.2°F-26.2°C 52% 2.9 mph NW4.7 kmh NW 11.0 mph17.7 kmh 30.11 in1019.6 mb 0.00 in0.0 mm 0.00 in0.0 mm 0.00 in0.0 mm
11:49 AM -1.5°F-18.6°C -14.1°F-25.6°C 54% 1.6 mph NW2.6 kmh NW 8.9 mph14.3 kmh 30.11 in1019.6 mb 0.00 in0.0 mm 0.00 in0.0 mm 0.00 in0.0 mm
11:54 AM -1.5°F-18.6°C -14.1°F-25.6°C 54% 3.8 mph NW6.1 kmh NW 11.9 mph19.2 kmh 30.12 in1020.0 mb 0.00 in0.0 mm 0.00 in0.0 mm 0.00 in0.0 mm
11:59 AM -1.7°F-18.7°C -15.0°F-26.1°C 52% 4.3 mph WSW6.9 kmh WSW 14.5 mph23.3 kmh 30.12 in1020.0 mb 0.00 in0.0 mm 0.00 in0.0 mm 0.00 in0.0 mm
12:04 PM -1.7°F-18.7°C -14.3°F-25.7°C 54% 3.4 mph SW5.5 kmh SW 8.5 mph13.7 kmh 30.13 in1020.3 mb 0.00 in0.0 mm 0.00 in0.0 mm 0.00 in0.0 mm
12:09 PM -1.7°F-18.7°C -12.5°F-24.7°C 59% 1.3 mph NW2.1 kmh NW 7.4 mph11.9 kmh 30.13 in1020.3 mb 0.00 in0.0 mm 0.00 in0.0 mm 0.00 in0.0 mm
12:14 PM -1.5°F-18.6°C -12.1°F-24.5°C 60% 2.7 mph NW4.3 kmh NW 6.7 mph10.8 kmh 30.13 in1020.3 mb 0.00 in0.0 mm 0.00 in0.0 mm 0.00 in0.0 mm
12:19 PM -1.7°F-18.7°C -12.5°F-24.7°C 59% 1.8 mph NW2.9 kmh NW 5.8 mph9.3 kmh 30.13 in1020.3 mb 0.00 in0.0 mm 0.00 in0.0 mm 0.00 in0.0 mm
12:24 PM -1.8°F-18.8°C -12.6°F-24.8°C 59% 1.6 mph NW2.6 kmh NW 5.8 mph9.3 kmh 30.14 in1020.7 mb 0.00 in0.0 mm 0.00 in0.0 mm 0.00 in0.0 mm
12:29 PM -1.7°F-18.7°C -13.2°F-25.1°C 57% 1.1 mph NW1.8 kmh NW 5.4 mph8.7 kmh 30.14 in1020.7 mb 0.00 in0.0 mm 0.00 in0.0 mm 0.00 in0.0 mm
12:34 PM -1.8°F-18.8°C -13.7°F-25.4°C 56% 2.5 mph NW4.0 kmh NW 8.1 mph13.0 kmh 30.14 in1020.7 mb 0.00 in0.0 mm 0.00 in0.0 mm 0.00 in0.0 mm
12:39 PM -2.0°F-18.9°C -14.3°F-25.7°C 55% 1.1 mph NW1.8 kmh NW 4.7 mph7.6 kmh 30.14 in1020.7 mb 0.00 in0.0 mm 0.00 in0.0 mm 0.00 in0.0 mm
12:44 PM -2.0°F-18.9°C -14.6°F-25.9°C 54% 2.2 mph NW3.5 kmh NW 9.4 mph15.1 kmh 30.15 in1021.0 mb 0.00 in0.0 mm 0.00 in0.0 mm 0.00 in0.0 mm
12:49 PM -2.2°F-19.0°C -14.8°F-26.0°C 54% 1.6 mph NW2.6 kmh NW 5.8 mph9.3 kmh 30.16 in1021.3 mb 0.00 in0.0 mm 0.00 in0.0 mm 0.00 in0.0 mm
12:54 PM -1.8°F-18.8°C -14.4°F-25.8°C 54% 1.6 mph WNW2.6 kmh WNW 5.6 mph9.0 kmh 30.16 in1021.3 mb 0.00 in0.0 mm 0.00 in0.0 mm 0.00 in0.0 mm
12:59 PM -1.7°F-18.7°C -13.9°F-25.5°C 55% 1.6 mph W2.6 kmh W 6.5 mph10.5 kmh 30.16 in1021.3 mb 0.00 in0.0 mm 0.00 in0.0 mm 0.00 in0.0 mm
01:04 PM -2.0°F-18.9°C -14.6°F-25.9°C 54% 1.3 mph NW2.1 kmh NW 8.5 mph13.7 kmh 30.16 in1021.3 mb 0.00 in0.0 mm 0.00 in0.0 mm 0.00 in0.0 mm
01:09 PM -1.8°F-18.8°C -14.4°F-25.8°C 54% 2.5 mph NW4.0 kmh NW 9.4 mph15.1 kmh 30.16 in1021.3 mb 0.00 in0.0 mm 0.00 in0.0 mm 0.00 in0.0 mm
01:14 PM -1.8°F-18.8°C -14.4°F-25.8°C 54% 1.8 mph NW2.9 kmh NW 6.3 mph10.1 kmh 30.16 in1021.3 mb 0.00 in0.0 mm 0.00 in0.0 mm 0.00 in0.0 mm
01:19 PM -1.7°F-18.7°C -13.9°F-25.5°C 55% 3.6 mph NW5.8 kmh NW 11.6 mph18.7 kmh 30.16 in1021.3 mb 0.00 in0.0 mm 0.00 in0.0 mm 0.00 in0.0 mm
01:24 PM -1.7°F-18.7°C -13.9°F-25.5°C 55% 2.0 mph WSW3.2 kmh WSW 5.6 mph9.0 kmh 30.17 in1021.7 mb 0.00 in0.0 mm 0.00 in0.0 mm 0.00 in0.0 mm
01:29 PM -1.7°F-18.7°C -13.9°F-25.5°C 55% 1.8 mph NW2.9 kmh NW 5.4 mph8.7 kmh 30.17 in1021.7 mb 0.00 in0.0 mm 0.00 in0.0 mm 0.00 in0.0 mm
01:34 PM -1.7°F-18.7°C -13.9°F-25.5°C 55% 1.6 mph NW2.6 kmh NW 5.8 mph9.3 kmh 30.17 in1021.7 mb 0.00 in0.0 mm 0.00 in0.0 mm 0.00 in0.0 mm
01:39 PM -1.5°F-18.6°C -13.7°F-25.4°C 55% 3.8 mph SW6.1 kmh SW 10.7 mph17.2 kmh 30.18 in1022.0 mb 0.00 in0.0 mm 0.00 in0.0 mm 0.00 in0.0 mm
01:44 PM -1.7°F-18.7°C -13.5°F-25.3°C 56% 2.2 mph WNW3.5 kmh WNW 9.2 mph14.8 kmh 30.17 in1021.7 mb 0.00 in0.0 mm 0.00 in0.0 mm 0.00 in0.0 mm
01:49 PM -1.5°F-18.6°C -13.4°F-25.2°C 56% 1.1 mph W1.8 kmh W 4.3 mph6.9 kmh 30.17 in1021.7 mb 0.00 in0.0 mm 0.00 in0.0 mm 0.00 in0.0 mm
01:54 PM -1.1°F-18.4°C -12.6°F-24.8°C 57% 3.6 mph W5.8 kmh W 7.4 mph11.9 kmh 30.17 in1021.7 mb 0.00 in0.0 mm 0.00 in0.0 mm 0.00 in0.0 mm
01:59 PM -0.9°F-18.3°C -12.5°F-24.7°C 57% 4.5 mph SW7.2 kmh SW 11.6 mph18.7 kmh 30.18 in1022.0 mb 0.00 in0.0 mm 0.00 in0.0 mm 0.00 in0.0 mm
02:04 PM -1.1°F-18.4°C -13.0°F-25.0°C 56% 5.4 mph SW8.7 kmh SW 12.5 mph20.1 kmh 30.18 in1022.0 mb 0.00 in0.0 mm 0.00 in0.0 mm 0.00 in0.0 mm
02:09 PM -1.1°F-18.4°C -13.0°F-25.0°C 56% 4.3 mph SW6.9 kmh SW 14.5 mph23.3 kmh 30.18 in1022.0 mb 0.00 in0.0 mm 0.00 in0.0 mm 0.00 in0.0 mm
02:14 PM -0.8°F-18.2°C -12.3°F-24.6°C 57% 3.1 mph WSW5.0 kmh WSW 9.6 mph15.4 kmh 30.18 in1022.0 mb 0.00 in0.0 mm 0.00 in0.0 mm 0.00 in0.0 mm
02:19 PM -0.8°F-18.2°C -12.3°F-24.6°C 57% 2.9 mph NW4.7 kmh NW 5.8 mph9.3 kmh 30.19 in1022.4 mb 0.00 in0.0 mm 0.00 in0.0 mm 0.00 in0.0 mm
02:24 PM -0.4°F-18.0°C -12.1°F-24.5°C 57% 4.5 mph WSW7.2 kmh WSW 16.6 mph26.7 kmh 30.19 in1022.4 mb 0.00 in0.0 mm 0.00 in0.0 mm 0.00 in0.0 mm
02:29 PM -0.8°F-18.2°C -12.6°F-24.8°C 56% 3.8 mph NW6.1 kmh NW 12.8 mph20.6 kmh 30.19 in1022.4 mb 0.00 in0.0 mm 0.00 in0.0 mm 0.00 in0.0 mm
02:34 PM -0.4°F-18.0°C -12.1°F-24.5°C 57% 1.8 mph SW2.9 kmh SW 8.3 mph13.4 kmh 30.19 in1022.4 mb 0.00 in0.0 mm 0.00 in0.0 mm 0.00 in0.0 mm
02:39 PM -0.2°F-17.9°C -11.2°F-24.0°C 59% 13.4 mph SW21.6 kmh SW 24.6 mph39.6 kmh 30.19 in1022.4 mb 0.00 in0.0 mm 0.00 in0.0 mm 0.00 in0.0 mm
02:44 PM -0.6°F-18.1°C -12.1°F-24.5°C 57% 8.1 mph SW13.0 kmh SW 16.1 mph25.9 kmh 30.19 in1022.4 mb 0.00 in0.0 mm 0.00 in0.0 mm 0.00 in0.0 mm
02:49 PM -0.8°F-18.2°C -12.3°F-24.6°C 57% 3.6 mph SW5.8 kmh SW 13.6 mph21.9 kmh 30.19 in1022.4 mb 0.00 in0.0 mm 0.00 in0.0 mm 0.00 in0.0 mm
02:54 PM -0.4°F-18.0°C -12.1°F-24.5°C 57% 5.6 mph SW9.0 kmh SW 17.0 mph27.4 kmh 30.19 in1022.4 mb 0.00 in0.0 mm 0.00 in0.0 mm 0.00 in0.0 mm
02:59 PM -0.4°F-18.0°C -12.1°F-24.5°C 57% 3.8 mph SW6.1 kmh SW 16.1 mph25.9 kmh 30.20 in1022.7 mb 0.00 in0.0 mm 0.00 in0.0 mm 0.00 in0.0 mm
03:04 PM -0.8°F-18.2°C -12.6°F-24.8°C 56% 6.5 mph SW10.5 kmh SW 14.1 mph22.7 kmh 30.20 in1022.7 mb 0.00 in0.0 mm 0.00 in0.0 mm 0.00 in0.0 mm
03:09 PM -0.6°F-18.1°C -12.1°F-24.5°C 57% 1.8 mph WSW2.9 kmh WSW 4.7 mph7.6 kmh 30.20 in1022.7 mb 0.00 in0.0 mm 0.00 in0.0 mm 0.00 in0.0 mm
03:14 PM -0.6°F-18.1°C -12.1°F-24.5°C 57% 3.1 mph SW5.0 kmh SW 15.9 mph25.6 kmh 30.21 in1023.0 mb 0.00 in0.0 mm 0.00 in0.0 mm 0.00 in0.0 mm
03:19 PM -0.6°F-18.1°C -12.1°F-24.5°C 57% 4.9 mph W7.9 kmh W 22.6 mph36.4 kmh 30.21 in1023.0 mb 0.00 in0.0 mm 0.00 in0.0 mm 0.00 in0.0 mm
03:24 PM -0.6°F-18.1°C -12.1°F-24.5°C 57% 4.5 mph NW7.2 kmh NW 7.2 mph11.6 kmh 30.21 in1023.0 mb 0.00 in0.0 mm 0.00 in0.0 mm 0.00 in0.0 mm
03:29 PM -0.4°F-18.0°C -12.1°F-24.5°C 57% 11.2 mph SW18.0 kmh SW 28.2 mph45.4 kmh 30.21 in1023.0 mb 0.00 in0.0 mm 0.00 in0.0 mm 0.00 in0.0 mm
03:34 PM -0.6°F-18.1°C -12.5°F-24.7°C 56% 3.8 mph WSW6.1 kmh WSW 9.4 mph15.1 kmh 30.21 in1023.0 mb 0.00 in0.0 mm 0.00 in0.0 mm 0.00 in0.0 mm
03:44 PM -0.8°F-18.2°C -12.6°F-24.8°C 56% 4.3 mph SW6.9 kmh SW 18.8 mph30.3 kmh 30.21 in1023.0 mb 0.00 in0.0 mm 0.00 in0.0 mm 0.00 in0.0 mm
03:49 PM -0.8°F-18.2°C -12.6°F-24.8°C 56% 6.3 mph SW10.1 kmh SW 18.6 mph29.9 kmh 30.22 in1023.4 mb 0.00 in0.0 mm 0.00 in0.0 mm 0.00 in0.0 mm
03:54 PM -0.8°F-18.2°C -12.6°F-24.8°C 56% 9.2 mph SW14.8 kmh SW 23.7 mph38.1 kmh 30.22 in1023.4 mb 0.00 in0.0 mm 0.00 in0.0 mm 0.00 in0.0 mm
03:59 PM -0.9°F-18.3°C -12.8°F-24.9°C 56% 11.0 mph SW17.7 kmh SW 22.1 mph35.6 kmh 30.22 in1023.4 mb 0.00 in0.0 mm 0.00 in0.0 mm 0.00 in0.0 mm
04:04 PM -0.8°F-18.2°C -12.6°F-24.8°C 56% 6.5 mph WSW10.5 kmh WSW 18.1 mph29.1 kmh 30.22 in1023.4 mb 0.00 in0.0 mm 0.00 in0.0 mm 0.00 in0.0 mm
04:09 PM -0.8°F-18.2°C -12.6°F-24.8°C 56% 7.6 mph SW12.2 kmh SW 16.8 mph27.0 kmh 30.23 in1023.7 mb 0.00 in0.0 mm 0.00 in0.0 mm 0.00 in0.0 mm
04:14 PM -0.4°F-18.0°C -12.1°F-24.5°C 57% 14.5 mph SW23.3 kmh SW 25.9 mph41.7 kmh 30.23 in1023.7 mb 0.00 in0.0 mm 0.00 in0.0 mm 0.00 in0.0 mm
04:19 PM -0.2°F-17.9°C -12.3°F-24.6°C 56% 6.3 mph WSW10.1 kmh WSW 21.7 mph34.9 kmh 30.23 in1023.7 mb 0.00 in0.0 mm 0.00 in0.0 mm 0.00 in0.0 mm
04:24 PM -0.6°F-18.1°C -12.8°F-24.9°C 55% 5.8 mph WSW9.3 kmh WSW 12.3 mph19.8 kmh 30.24 in1024.0 mb 0.00 in0.0 mm 0.00 in0.0 mm 0.00 in0.0 mm
04:29 PM -0.9°F-18.3°C -13.5°F-25.3°C 54% 11.4 mph SW18.3 kmh SW 25.5 mph41.0 kmh 30.24 in1024.0 mb 0.00 in0.0 mm 0.00 in0.0 mm 0.00 in0.0 mm
04:34 PM -0.9°F-18.3°C -13.2°F-25.1°C 55% 8.3 mph SW13.4 kmh SW 23.7 mph38.1 kmh 30.23 in1023.7 mb 0.00 in0.0 mm 0.00 in0.0 mm 0.00 in0.0 mm
04:39 PM -1.1°F-18.4°C -13.4°F-25.2°C 55% 10.1 mph SW16.3 kmh SW 21.5 mph34.6 kmh 30.24 in1024.0 mb 0.00 in0.0 mm 0.00 in0.0 mm 0.00 in0.0 mm
04:44 PM -1.5°F-18.6°C -14.1°F-25.6°C 54% 3.1 mph WSW5.0 kmh WSW 8.3 mph13.4 kmh 30.24 in1024.0 mb 0.00 in0.0 mm 0.00 in0.0 mm 0.00 in0.0 mm
04:49 PM -1.5°F-18.6°C -14.1°F-25.6°C 54% 5.8 mph SW9.3 kmh SW 17.2 mph27.7 kmh 30.24 in1024.0 mb 0.00 in0.0 mm 0.00 in0.0 mm 0.00 in0.0 mm
04:54 PM -1.3°F-18.5°C -13.9°F-25.5°C 54% 3.4 mph SW5.5 kmh SW 9.2 mph14.8 kmh 30.25 in1024.4 mb 0.00 in0.0 mm 0.00 in0.0 mm 0.00 in0.0 mm
04:59 PM -1.1°F-18.4°C -13.4°F-25.2°C 55% 5.8 mph SW9.3 kmh SW 19.2 mph30.9 kmh 30.24 in1024.0 mb 0.00 in0.0 mm 0.00 in0.0 mm 0.00 in0.0 mm
05:04 PM -0.9°F-18.3°C -12.8°F-24.9°C 56% 8.3 mph SW13.4 kmh SW 23.0 mph37.0 kmh 30.24 in1024.0 mb 0.00 in0.0 mm 0.00 in0.0 mm 0.00 in0.0 mm
05:09 PM -1.3°F-18.5°C -13.5°F-25.3°C 55% 2.7 mph SW4.3 kmh SW 11.9 mph19.2 kmh 30.25 in1024.4 mb 0.00 in0.0 mm 0.00 in0.0 mm 0.00 in0.0 mm
05:14 PM -1.7°F-18.7°C -14.3°F-25.7°C 54% 6.0 mph SW9.7 kmh SW 12.8 mph20.6 kmh 30.25 in1024.4 mb 0.00 in0.0 mm 0.00 in0.0 mm 0.00 in0.0 mm
05:19 PM -1.7°F-18.7°C -13.9°F-25.5°C 55% 3.6 mph SSW5.8 kmh SSW 10.5 mph16.9 kmh 30.25 in1024.4 mb 0.00 in0.0 mm 0.00 in0.0 mm 0.00 in0.0 mm
05:24 PM -1.7°F-18.7°C -14.3°F-25.7°C 54% 1.1 mph NW1.8 kmh NW 5.1 mph8.2 kmh 30.26 in1024.7 mb 0.00 in0.0 mm 0.00 in0.0 mm 0.00 in0.0 mm
05:29 PM -1.5°F-18.6°C -13.7°F-25.4°C 55% 1.3 mph NW2.1 kmh NW 7.8 mph12.6 kmh 30.26 in1024.7 mb 0.00 in0.0 mm 0.00 in0.0 mm 0.00 in0.0 mm
05:34 PM -1.7°F-18.7°C -13.9°F-25.5°C 55% 3.4 mph NW5.5 kmh NW 13.0 mph20.9 kmh 30.26 in1024.7 mb 0.00 in0.0 mm 0.00 in0.0 mm 0.00 in0.0 mm
05:39 PM -1.8°F-18.8°C -14.1°F-25.6°C 55% 3.4 mph NW5.5 kmh NW 12.5 mph20.1 kmh 30.26 in1024.7 mb 0.00 in0.0 mm 0.00 in0.0 mm 0.00 in0.0 mm
05:44 PM -1.7°F-18.7°C -13.9°F-25.5°C 55% 0.7 mph NW1.1 kmh NW 0.9 mph1.4 kmh 30.26 in1024.7 mb 0.00 in0.0 mm 0.00 in0.0 mm 0.00 in0.0 mm
05:49 PM -1.8°F-18.8°C -14.1°F-25.6°C 55% 1.6 mph NW2.6 kmh NW 4.7 mph7.6 kmh 30.26 in1024.7 mb 0.00 in0.0 mm 0.00 in0.0 mm 0.00 in0.0 mm
05:54 PM -1.8°F-18.8°C -14.1°F-25.6°C 55% 1.1 mph NW1.8 kmh NW 5.1 mph8.2 kmh 30.26 in1024.7 mb 0.00 in0.0 mm 0.00 in0.0 mm 0.00 in0.0 mm
05:59 PM -1.8°F-18.8°C -13.7°F-25.4°C 56% 2.0 mph NW3.2 kmh NW 8.3 mph13.4 kmh 30.26 in1024.7 mb 0.00 in0.0 mm 0.00 in0.0 mm 0.00 in0.0 mm
06:04 PM -2.0°F-18.9°C -13.9°F-25.5°C 56% 2.5 mph NW4.0 kmh NW 8.1 mph13.0 kmh 30.27 in1025.1 mb 0.00 in0.0 mm 0.00 in0.0 mm 0.00 in0.0 mm
06:09 PM -2.0°F-18.9°C -13.9°F-25.5°C 56% 5.8 mph NE9.3 kmh NE 14.5 mph23.3 kmh 30.27 in1025.1 mb 0.00 in0.0 mm 0.00 in0.0 mm 0.00 in0.0 mm
06:14 PM -2.4°F-19.1°C -14.3°F-25.7°C 56% 2.7 mph NW4.3 kmh NW 6.0 mph9.7 kmh 30.27 in1025.1 mb 0.00 in0.0 mm 0.00 in0.0 mm 0.00 in0.0 mm
06:19 PM -2.6°F-19.2°C -14.8°F-26.0°C 55% 1.8 mph NW2.9 kmh NW 4.7 mph7.6 kmh 30.26 in1024.7 mb 0.00 in0.0 mm 0.00 in0.0 mm 0.00 in0.0 mm
06:24 PM -2.4°F-19.1°C -14.3°F-25.7°C 56% 1.3 mph NW2.1 kmh NW 4.7 mph7.6 kmh 30.27 in1025.1 mb 0.00 in0.0 mm 0.00 in0.0 mm 0.00 in0.0 mm
06:29 PM -2.6°F-19.2°C -14.1°F-25.6°C 57% 4.5 mph NNE7.2 kmh NNE 15.0 mph24.1 kmh 30.26 in1024.7 mb 0.00 in0.0 mm 0.00 in0.0 mm 0.00 in0.0 mm
06:34 PM -2.4°F-19.1°C -13.9°F-25.5°C 57% 2.7 mph NW4.3 kmh NW 7.4 mph11.9 kmh 30.27 in1025.1 mb 0.00 in0.0 mm 0.00 in0.0 mm 0.00 in0.0 mm
06:39 PM -2.4°F-19.1°C -13.9°F-25.5°C 57% 3.1 mph NW5.0 kmh NW 11.2 mph18.0 kmh 30.26 in1024.7 mb 0.00 in0.0 mm 0.00 in0.0 mm 0.00 in0.0 mm
06:44 PM -2.6°F-19.2°C -14.1°F-25.6°C 57% 1.8 mph NW2.9 kmh NW 5.8 mph9.3 kmh 30.27 in1025.1 mb 0.00 in0.0 mm 0.00 in0.0 mm 0.00 in0.0 mm
06:49 PM -2.7°F-19.3°C -14.3°F-25.7°C 57% 3.1 mph NW5.0 kmh NW 11.2 mph18.0 kmh 30.26 in1024.7 mb 0.00 in0.0 mm 0.00 in0.0 mm 0.00 in0.0 mm
06:54 PM -2.7°F-19.3°C -14.3°F-25.7°C 57% 3.4 mph NW5.5 kmh NW 9.8 mph15.8 kmh 30.26 in1024.7 mb 0.00 in0.0 mm 0.00 in0.0 mm 0.00 in0.0 mm
06:59 PM -2.9°F-19.4°C -14.4°F-25.8°C 57% 4.7 mph NW7.6 kmh NW 5.8 mph9.3 kmh 30.26 in1024.7 mb 0.00 in0.0 mm 0.00 in0.0 mm 0.00 in0.0 mm
07:04 PM -2.9°F-19.4°C -13.7°F-25.4°C 59% 3.4 mph NW5.5 kmh NW 5.1 mph8.2 kmh 30.26 in1024.7 mb 0.00 in0.0 mm 0.00 in0.0 mm 0.00 in0.0 mm
07:09 PM -3.1°F-19.5°C -13.9°F-25.5°C 59% 3.8 mph NW6.1 kmh NW 5.6 mph9.0 kmh 30.27 in1025.1 mb 0.00 in0.0 mm 0.00 in0.0 mm 0.00 in0.0 mm
07:14 PM -3.1°F-19.5°C -13.9°F-25.5°C 59% 4.0 mph NW6.4 kmh NW 4.9 mph7.9 kmh 30.27 in1025.1 mb 0.00 in0.0 mm 0.00 in0.0 mm 0.00 in0.0 mm
07:19 PM -3.1°F-19.5°C -13.5°F-25.3°C 60% 4.5 mph NW7.2 kmh NW 5.6 mph9.0 kmh 30.27 in1025.1 mb 0.00 in0.0 mm 0.00 in0.0 mm 0.00 in0.0 mm
07:24 PM -3.1°F-19.5°C -13.5°F-25.3°C 60% 4.5 mph NW7.2 kmh NW 4.7 mph7.6 kmh 30.28 in1025.4 mb 0.00 in0.0 mm 0.00 in0.0 mm 0.00 in0.0 mm
07:29 PM -3.3°F-19.6°C -13.7°F-25.4°C 60% 4.5 mph NW7.2 kmh NW 6.7 mph10.8 kmh 30.29 in1025.7 mb 0.00 in0.0 mm 0.00 in0.0 mm 0.00 in0.0 mm
07:34 PM -3.3°F-19.6°C -13.7°F-25.4°C 60% 4.0 mph NW6.4 kmh NW 6.9 mph11.1 kmh 30.29 in1025.7 mb 0.00 in0.0 mm 0.00 in0.0 mm 0.00 in0.0 mm
07:39 PM -3.3°F-19.6°C -13.7°F-25.4°C 60% 4.3 mph NW6.9 kmh NW 4.7 mph7.6 kmh 30.29 in1025.7 mb 0.00 in0.0 mm 0.00 in0.0 mm 0.00 in0.0 mm
07:44 PM -3.3°F-19.6°C -13.7°F-25.4°C 60% 4.3 mph NW6.9 kmh NW 4.7 mph7.6 kmh 30.29 in1025.7 mb 0.00 in0.0 mm 0.00 in0.0 mm 0.00 in0.0 mm
07:49 PM -3.1°F-19.5°C -13.2°F-25.1°C 61% 4.0 mph NW6.4 kmh NW 4.7 mph7.6 kmh 30.29 in1025.7 mb 0.00 in0.0 mm 0.00 in0.0 mm 0.00 in0.0 mm
07:54 PM -2.9°F-19.4°C -13.0°F-25.0°C 61% 4.0 mph NW6.4 kmh NW 4.9 mph7.9 kmh 30.29 in1025.7 mb 0.00 in0.0 mm 0.00 in0.0 mm 0.00 in0.0 mm
07:59 PM -2.9°F-19.4°C -13.0°F-25.0°C 61% 4.0 mph NW6.4 kmh NW 4.7 mph7.6 kmh 30.29 in1025.7 mb 0.00 in0.0 mm 0.00 in0.0 mm 0.00 in0.0 mm
08:04 PM -2.6°F-19.2°C -12.6°F-24.8°C 61% 4.0 mph NW6.4 kmh NW 5.4 mph8.7 kmh 30.29 in1025.7 mb 0.00 in0.0 mm 0.00 in0.0 mm 0.00 in0.0 mm
08:09 PM -2.6°F-19.2°C -12.6°F-24.8°C 61% 3.8 mph NW6.1 kmh NW 4.7 mph7.6 kmh 30.29 in1025.7 mb 0.00 in0.0 mm 0.00 in0.0 mm 0.00 in0.0 mm
08:14 PM -2.6°F-19.2°C -12.6°F-24.8°C 61% 2.5 mph NW4.0 kmh NW 8.9 mph14.3 kmh 30.29 in1025.7 mb 0.00 in0.0 mm 0.00 in0.0 mm 0.00 in0.0 mm
08:19 PM -2.7°F-19.3°C -12.8°F-24.9°C 61% 3.6 mph NW5.8 kmh NW 5.1 mph8.2 kmh 30.29 in1025.7 mb 0.00 in0.0 mm 0.00 in0.0 mm 0.00 in0.0 mm
08:24 PM -2.7°F-19.3°C -12.8°F-24.9°C 61% 4.0 mph NW6.4 kmh NW 6.0 mph9.7 kmh 30.30 in1026.1 mb 0.00 in0.0 mm 0.00 in0.0 mm 0.00 in0.0 mm
08:29 PM -2.6°F-19.2°C -12.5°F-24.7°C 62% 3.1 mph NW5.0 kmh NW 4.5 mph7.2 kmh 30.30 in1026.1 mb 0.00 in0.0 mm 0.00 in0.0 mm 0.00 in0.0 mm
08:34 PM -2.4°F-19.1°C -12.3°F-24.6°C 62% 2.2 mph NW3.5 kmh NW 4.7 mph7.6 kmh 30.30 in1026.1 mb 0.00 in0.0 mm 0.00 in0.0 mm 0.00 in0.0 mm
08:39 PM -2.2°F-19.0°C -12.1°F-24.5°C 62% 2.7 mph NW4.3 kmh NW 4.9 mph7.9 kmh 30.30 in1026.1 mb 0.00 in0.0 mm 0.00 in0.0 mm 0.00 in0.0 mm
08:44 PM -2.2°F-19.0°C -11.7°F-24.3°C 63% 0.9 mph NW1.4 kmh NW 4.7 mph7.6 kmh 30.30 in1026.1 mb 0.00 in0.0 mm 0.00 in0.0 mm 0.00 in0.0 mm
08:49 PM -2.4°F-19.1°C -11.9°F-24.4°C 63% 1.8 mph NW2.9 kmh NW 5.8 mph9.3 kmh 30.30 in1026.1 mb 0.00 in0.0 mm 0.00 in0.0 mm 0.00 in0.0 mm
08:54 PM -2.2°F-19.0°C -11.7°F-24.3°C 63% 0.9 mph NW1.4 kmh NW 4.0 mph6.4 kmh 30.30 in1026.1 mb 0.00 in0.0 mm 0.00 in0.0 mm 0.00 in0.0 mm
08:59 PM -2.0°F-18.9°C -11.6°F-24.2°C 63% 1.1 mph NW1.8 kmh NW 4.5 mph7.2 kmh 30.30 in1026.1 mb 0.00 in0.0 mm 0.00 in0.0 mm 0.00 in0.0 mm
09:04 PM -2.0°F-18.9°C -11.2°F-24.0°C 64% 1.1 mph NW1.8 kmh NW 4.3 mph6.9 kmh 30.30 in1026.1 mb 0.00 in0.0 mm 0.00 in0.0 mm 0.00 in0.0 mm
09:09 PM -2.0°F-18.9°C -11.2°F-24.0°C 64% 1.3 mph NW2.1 kmh NW 4.3 mph6.9 kmh 30.30 in1026.1 mb 0.00 in0.0 mm 0.00 in0.0 mm 0.00 in0.0 mm
09:14 PM -1.8°F-18.8°C -11.0°F-23.9°C 64% 2.9 mph NW4.7 kmh NW 5.4 mph8.7 kmh 30.30 in1026.1 mb 0.00 in0.0 mm 0.00 in0.0 mm 0.00 in0.0 mm
09:19 PM -1.8°F-18.8°C -11.0°F-23.9°C 64% 2.0 mph NW3.2 kmh NW 4.5 mph7.2 kmh 30.30 in1026.1 mb 0.00 in0.0 mm 0.00 in0.0 mm 0.00 in0.0 mm
09:24 PM -1.7°F-18.7°C -10.8°F-23.8°C 64% 0.7 mph NW1.1 kmh NW 0.7 mph1.1 kmh 30.30 in1026.1 mb 0.00 in0.0 mm 0.00 in0.0 mm 0.00 in0.0 mm
09:29 PM -1.8°F-18.8°C -10.7°F-23.7°C 65% 2.2 mph NW3.5 kmh NW 4.5 mph7.2 kmh 30.30 in1026.1 mb 0.00 in0.0 mm 0.00 in0.0 mm 0.00 in0.0 mm
09:34 PM -1.7°F-18.7°C -10.5°F-23.6°C 65% 1.3 mph NW2.1 kmh NW 4.5 mph7.2 kmh 30.31 in1026.4 mb 0.00 in0.0 mm 0.00 in0.0 mm 0.00 in0.0 mm
09:39 PM -1.7°F-18.7°C -10.3°F-23.5°C 66% 1.1 mph NW1.8 kmh NW 4.5 mph7.2 kmh 30.30 in1026.1 mb 0.00 in0.0 mm 0.00 in0.0 mm 0.00 in0.0 mm
09:44 PM -1.5°F-18.6°C -10.1°F-23.4°C 66% 1.3 mph NW2.1 kmh NW 6.0 mph9.7 kmh 30.30 in1026.1 mb 0.00 in0.0 mm 0.00 in0.0 mm 0.00 in0.0 mm
09:49 PM -1.5°F-18.6°C -10.1°F-23.4°C 66% 0.9 mph NW1.4 kmh NW 1.8 mph2.9 kmh 30.31 in1026.4 mb 0.00 in0.0 mm 0.00 in0.0 mm 0.00 in0.0 mm
09:54 PM -1.5°F-18.6°C -9.4°F-23.0°C 68% 0.9 mph NW1.4 kmh NW 1.1 mph1.8 kmh 30.31 in1026.4 mb 0.00 in0.0 mm 0.00 in0.0 mm 0.00 in0.0 mm
09:59 PM -1.3°F-18.5°C -9.2°F-22.9°C 68% 1.3 mph NW2.1 kmh NW 4.5 mph7.2 kmh 30.31 in1026.4 mb 0.00 in0.0 mm 0.00 in0.0 mm 0.00 in0.0 mm
10:04 PM -1.5°F-18.6°C -9.4°F-23.0°C 68% 0.9 mph NW1.4 kmh NW 4.3 mph6.9 kmh 30.31 in1026.4 mb 0.00 in0.0 mm 0.00 in0.0 mm 0.00 in0.0 mm
10:09 PM -1.5°F-18.6°C -9.4°F-23.0°C 68% 1.1 mph NW1.8 kmh NW 4.5 mph7.2 kmh 30.31 in1026.4 mb 0.00 in0.0 mm 0.00 in0.0 mm 0.00 in0.0 mm
10:14 PM -1.3°F-18.5°C -9.2°F-22.9°C 68% 2.0 mph NW3.2 kmh NW 6.3 mph10.1 kmh 30.30 in1026.1 mb 0.00 in0.0 mm 0.00 in0.0 mm 0.00 in0.0 mm
10:19 PM -1.3°F-18.5°C -9.9°F-23.3°C 66% 1.3 mph NW2.1 kmh NW 4.0 mph6.4 kmh 30.31 in1026.4 mb 0.00 in0.0 mm 0.00 in0.0 mm 0.00 in0.0 mm
10:24 PM -1.5°F-18.6°C -10.1°F-23.4°C 66% 1.8 mph NW2.9 kmh NW 5.1 mph8.2 kmh 30.31 in1026.4 mb 0.00 in0.0 mm 0.00 in0.0 mm 0.00 in0.0 mm
10:29 PM -1.7°F-18.7°C -10.5°F-23.6°C 65% 1.1 mph NW1.8 kmh NW 4.0 mph6.4 kmh 30.31 in1026.4 mb 0.00 in0.0 mm 0.00 in0.0 mm 0.00 in0.0 mm
10:34 PM -1.8°F-18.8°C -11.0°F-23.9°C 64% 1.1 mph NW1.8 kmh NW 4.0 mph6.4 kmh 30.31 in1026.4 mb 0.00 in0.0 mm 0.00 in0.0 mm 0.00 in0.0 mm
10:39 PM -1.8°F-18.8°C -10.7°F-23.7°C 65% 0.9 mph NW1.4 kmh NW 4.3 mph6.9 kmh 30.31 in1026.4 mb 0.00 in0.0 mm 0.00 in0.0 mm 0.00 in0.0 mm
10:44 PM -2.0°F-18.9°C -10.8°F-23.8°C 65% 2.5 mph NW4.0 kmh NW 5.1 mph8.2 kmh 30.31 in1026.4 mb 0.00 in0.0 mm 0.00 in0.0 mm 0.00 in0.0 mm
10:49 PM -2.0°F-18.9°C -11.2°F-24.0°C 64% 1.6 mph NW2.6 kmh NW 4.3 mph6.9 kmh 30.32 in1026.8 mb 0.00 in0.0 mm 0.00 in0.0 mm 0.00 in0.0 mm
10:54 PM -2.2°F-19.0°C -11.4°F-24.1°C 64% 1.3 mph NW2.1 kmh NW 4.0 mph6.4 kmh 30.32 in1026.8 mb 0.00 in0.0 mm 0.00 in0.0 mm 0.00 in0.0 mm
10:59 PM -2.4°F-19.1°C -11.6°F-24.2°C 64% 3.4 mph NW5.5 kmh NW 5.6 mph9.0 kmh 30.32 in1026.8 mb 0.00 in0.0 mm 0.00 in0.0 mm 0.00 in0.0 mm
11:04 PM -2.2°F-19.0°C -11.4°F-24.1°C 64% 1.3 mph NW2.1 kmh NW 4.3 mph6.9 kmh 30.32 in1026.8 mb 0.00 in0.0 mm 0.00 in0.0 mm 0.00 in0.0 mm
11:09 PM -2.4°F-19.1°C -11.6°F-24.2°C 64% 2.0 mph NW3.2 kmh NW 4.5 mph7.2 kmh 30.32 in1026.8 mb 0.00 in0.0 mm 0.00 in0.0 mm 0.00 in0.0 mm
11:14 PM -2.4°F-19.1°C -11.6°F-24.2°C 64% 3.4 mph NW5.5 kmh NW 5.6 mph9.0 kmh 30.32 in1026.8 mb 0.00 in0.0 mm 0.00 in0.0 mm 0.00 in0.0 mm
11:19 PM -2.4°F-19.1°C -11.6°F-24.2°C 64% 3.4 mph NW5.5 kmh NW 4.7 mph7.6 kmh 30.32 in1026.8 mb 0.00 in0.0 mm 0.00 in0.0 mm 0.00 in0.0 mm
11:24 PM -2.4°F-19.1°C -11.6°F-24.2°C 64% 3.6 mph NW5.8 kmh NW 4.9 mph7.9 kmh 30.32 in1026.8 mb 0.00 in0.0 mm 0.00 in0.0 mm 0.00 in0.0 mm
11:29 PM -2.4°F-19.1°C -11.2°F-24.0°C 65% 2.9 mph NW4.7 kmh NW 5.6 mph9.0 kmh 30.32 in1026.8 mb 0.00 in0.0 mm 0.00 in0.0 mm 0.00 in0.0 mm
11:34 PM -2.6°F-19.2°C -11.7°F-24.3°C 64% 3.1 mph NW5.0 kmh NW 6.7 mph10.8 kmh 30.33 in1027.1 mb 0.00 in0.0 mm 0.00 in0.0 mm 0.00 in0.0 mm
11:39 PM -2.6°F-19.2°C -11.4°F-24.1°C 65% 4.0 mph NW6.4 kmh NW 4.5 mph7.2 kmh 30.33 in1027.1 mb 0.00 in0.0 mm 0.00 in0.0 mm 0.00 in0.0 mm
11:44 PM -2.6°F-19.2°C -11.4°F-24.1°C 65% 3.6 mph NW5.8 kmh NW 5.1 mph8.2 kmh 30.33 in1027.1 mb 0.00 in0.0 mm 0.00 in0.0 mm 0.00 in0.0 mm
11:49 PM -2.6°F-19.2°C -11.4°F-24.1°C 65% 3.4 mph NW5.5 kmh NW 4.7 mph7.6 kmh 30.33 in1027.1 mb 0.00 in0.0 mm 0.00 in0.0 mm 0.00 in0.0 mm
11:54 PM -2.7°F-19.3°C -11.6°F-24.2°C 65% 3.8 mph NW6.1 kmh NW 6.9 mph11.1 kmh 30.33 in1027.1 mb 0.00 in0.0 mm 0.00 in0.0 mm 0.00 in0.0 mm
11:59 PM -2.6°F-19.2°C -11.2°F-24.0°C 66% 3.6 mph NW5.8 kmh NW 4.7 mph7.6 kmh 30.33 in1027.1 mb 0.00 in0.0 mm 0.00 in0.0 mm 0.00 in0.0 mm